sensor_id;sensor_type;location;lat;lon;timestamp;temperature;humidity
24103;DHT22;12278;53.058;9.028;2023-04-03T00:01:34;2.10;99.90
24103;DHT22;12278;53.058;9.028;2023-04-03T00:05:35;2.00;99.90
24103;DHT22;12278;53.058;9.028;2023-04-03T00:09:36;2.00;99.90
24103;DHT22;12278;53.058;9.028;2023-04-03T00:13:37;1.80;99.90
24103;DHT22;12278;53.058;9.028;2023-04-03T00:17:37;1.70;99.90
24103;DHT22;12278;53.058;9.028;2023-04-03T00:21:38;1.70;99.90
24103;DHT22;12278;53.058;9.028;2023-04-03T00:25:39;1.60;99.90
24103;DHT22;12278;53.058;9.028;2023-04-03T00:34:07;1.30;99.90
24103;DHT22;12278;53.058;9.028;2023-04-03T00:38:07;1.30;99.90
24103;DHT22;12278;53.058;9.028;2023-04-03T00:42:18;1.40;99.90
24103;DHT22;12278;53.058;9.028;2023-04-03T00:46:19;1.30;99.90
24103;DHT22;12278;53.058;9.028;2023-04-03T00:50:20;1.20;99.90
24103;DHT22;12278;53.058;9.028;2023-04-03T00:54:21;1.10;99.90
24103;DHT22;12278;53.058;9.028;2023-04-03T00:58:37;1.20;99.90
24103;DHT22;12278;53.058;9.028;2023-04-03T01:02:39;1.30;99.90
24103;DHT22;12278;53.058;9.028;2023-04-03T01:06:42;1.20;99.90
24103;DHT22;12278;53.058;9.028;2023-04-03T01:10:43;1.10;99.90
24103;DHT22;12278;53.058;9.028;2023-04-03T01:14:57;0.90;99.90
24103;DHT22;12278;53.058;9.028;2023-04-03T01:18:59;0.90;99.90
24103;DHT22;12278;53.058;9.028;2023-04-03T01:27:19;1.20;99.90
24103;DHT22;12278;53.058;9.028;2023-04-03T01:35:35;1.40;99.90
24103;DHT22;12278;53.058;9.028;2023-04-03T01:39:36;1.40;99.90
24103;DHT22;12278;53.058;9.028;2023-04-03T01:43:36;1.10;99.90
24103;DHT22;12278;53.058;9.028;2023-04-03T01:47:37;1.30;99.90
24103;DHT22;12278;53.058;9.028;2023-04-03T01:51:37;1.20;99.90
24103;DHT22;12278;53.058;9.028;2023-04-03T01:55:38;1.10;99.90
24103;DHT22;12278;53.058;9.028;2023-04-03T01:59:41;1.20;99.90
24103;DHT22;12278;53.058;9.028;2023-04-03T02:03:41;1.10;99.90
24103;DHT22;12278;53.058;9.028;2023-04-03T02:07:42;1.20;99.90
24103;DHT22;12278;53.058;9.028;2023-04-03T02:11:42;1.30;99.90
24103;DHT22;12278;53.058;9.028;2023-04-03T02:15:44;1.30;99.90
24103;DHT22;12278;53.058;9.028;2023-04-03T02:19:45;1.30;99.90
24103;DHT22;12278;53.058;9.028;2023-04-03T02:23:46;1.30;99.90
24103;DHT22;12278;53.058;9.028;2023-04-03T02:27:48;1.30;99.90
24103;DHT22;12278;53.058;9.028;2023-04-03T02:31:49;1.30;99.90
24103;DHT22;12278;53.058;9.028;2023-04-03T02:35:54;1.30;99.90
24103;DHT22;12278;53.058;9.028;2023-04-03T02:39:55;1.20;99.90
24103;DHT22;12278;53.058;9.028;2023-04-03T02:43:55;1.20;99.90
24103;DHT22;12278;53.058;9.028;2023-04-03T02:48:01;1.20;99.90
24103;DHT22;12278;53.058;9.028;2023-04-03T02:52:01;1.20;99.90
24103;DHT22;12278;53.058;9.028;2023-04-03T02:56:02;1.20;99.90
24103;DHT22;12278;53.058;9.028;2023-04-03T03:00:02;1.30;99.90
24103;DHT22;12278;53.058;9.028;2023-04-03T03:04:03;1.20;99.90
24103;DHT22;12278;53.058;9.028;2023-04-03T03:08:03;1.20;99.90
24103;DHT22;12278;53.058;9.028;2023-04-03T03:12:04;1.20;99.90
24103;DHT22;12278;53.058;9.028;2023-04-03T03:16:05;1.10;99.90
24103;DHT22;12278;53.058;9.028;2023-04-03T03:20:06;1.10;99.90
24103;DHT22;12278;53.058;9.028;2023-04-03T03:24:07;1.00;99.90
24103;DHT22;12278;53.058;9.028;2023-04-03T03:28:08;1.00;99.90
24103;DHT22;12278;53.058;9.028;2023-04-03T03:32:08;1.00;99.90
24103;DHT22;12278;53.058;9.028;2023-04-03T03:36:09;0.90;99.90
24103;DHT22;12278;53.058;9.028;2023-04-03T03:40:09;0.90;99.90
24103;DHT22;12278;53.058;9.028;2023-04-03T03:44:12;0.70;99.90
24103;DHT22;12278;53.058;9.028;2023-04-03T03:48:12;0.60;99.90
24103;DHT22;12278;53.058;9.028;2023-04-03T03:52:13;0.50;99.90
24103;DHT22;12278;53.058;9.028;2023-04-03T03:56:13;0.50;99.90
24103;DHT22;12278;53.058;9.028;2023-04-03T04:00:15;0.50;99.90
24103;DHT22;12278;53.058;9.028;2023-04-03T04:04:16;0.50;99.90
24103;DHT22;12278;53.058;9.028;2023-04-03T04:08:17;0.40;99.90
24103;DHT22;12278;53.058;9.028;2023-04-03T04:12:17;0.40;99.90
24103;DHT22;12278;53.058;9.028;2023-04-03T04:16:19;0.50;99.90
24103;DHT22;12278;53.058;9.028;2023-04-03T04:20:19;0.60;99.90
24103;DHT22;12278;53.058;9.028;2023-04-03T04:24:20;0.60;99.90
24103;DHT22;12278;53.058;9.028;2023-04-03T04:28:21;0.30;99.90
24103;DHT22;12278;53.058;9.028;2023-04-03T04:32:32;0.10;99.90
24103;DHT22;12278;53.058;9.028;2023-04-03T04:36:37;0.20;99.90
24103;DHT22;12278;53.058;9.028;2023-04-03T04:40:40;0.40;99.90
24103;DHT22;12278;53.058;9.028;2023-04-03T04:44:41;0.50;99.90
24103;DHT22;12278;53.058;9.028;2023-04-03T04:48:49;0.60;99.90
24103;DHT22;12278;53.058;9.028;2023-04-03T04:52:50;0.70;99.90
24103;DHT22;12278;53.058;9.028;2023-04-03T04:56:55;0.70;99.90
24103;DHT22;12278;53.058;9.028;2023-04-03T05:01:02;0.80;99.90
24103;DHT22;12278;53.058;9.028;2023-04-03T05:05:03;0.80;99.90
24103;DHT22;12278;53.058;9.028;2023-04-03T05:09:04;0.80;99.90
24103;DHT22;12278;53.058;9.028;2023-04-03T05:13:14;0.70;99.90
24103;DHT22;12278;53.058;9.028;2023-04-03T05:17:15;0.80;99.90
24103;DHT22;12278;53.058;9.028;2023-04-03T05:21:15;0.80;99.90
24103;DHT22;12278;53.058;9.028;2023-04-03T05:25:18;0.90;99.90
24103;DHT22;12278;53.058;9.028;2023-04-03T05:29:18;0.90;99.90
24103;DHT22;12278;53.058;9.028;2023-04-03T05:33:19;0.90;99.90
24103;DHT22;12278;53.058;9.028;2023-04-03T05:37:20;1.00;99.90
24103;DHT22;12278;53.058;9.028;2023-04-03T05:41:20;1.00;99.90
24103;DHT22;12278;53.058;9.028;2023-04-03T05:45:22;1.10;99.90
24103;DHT22;12278;53.058;9.028;2023-04-03T05:49:22;1.10;99.90
24103;DHT22;12278;53.058;9.028;2023-04-03T05:53:29;1.20;99.90
24103;DHT22;12278;53.058;9.028;2023-04-03T05:57:31;1.30;99.90
24103;DHT22;12278;53.058;9.028;2023-04-03T06:01:42;1.50;99.90
24103;DHT22;12278;53.058;9.028;2023-04-03T06:05:43;1.60;99.90
24103;DHT22;12278;53.058;9.028;2023-04-03T06:09:43;1.90;99.90
24103;DHT22;12278;53.058;9.028;2023-04-03T06:13:56;2.20;99.90
24103;DHT22;12278;53.058;9.028;2023-04-03T06:18:02;2.50;99.90
24103;DHT22;12278;53.058;9.028;2023-04-03T06:22:09;2.80;99.90
24103;DHT22;12278;53.058;9.028;2023-04-03T06:26:12;3.10;99.90
24103;DHT22;12278;53.058;9.028;2023-04-03T06:30:13;3.40;99.90
24103;DHT22;12278;53.058;9.028;2023-04-03T06:34:13;3.60;99.90
24103;DHT22;12278;53.058;9.028;2023-04-03T06:38:15;3.70;99.90
24103;DHT22;12278;53.058;9.028;2023-04-03T06:42:16;3.90;99.90
24103;DHT22;12278;53.058;9.028;2023-04-03T06:46:19;4.10;99.90
24103;DHT22;12278;53.058;9.028;2023-04-03T06:50:20;4.30;99.90
24103;DHT22;12278;53.058;9.028;2023-04-03T06:54:20;4.40;99.90
24103;DHT22;12278;53.058;9.028;2023-04-03T06:58:21;4.50;99.90
24103;DHT22;12278;53.058;9.028;2023-04-03T07:02:22;5.00;99.90
24103;DHT22;12278;53.058;9.028;2023-04-03T07:06:23;5.20;99.90
24103;DHT22;12278;53.058;9.028;2023-04-03T07:10:27;5.40;99.90
24103;DHT22;12278;53.058;9.028;2023-04-03T07:14:28;5.70;99.90
24103;DHT22;12278;53.058;9.028;2023-04-03T07:18:29;6.00;99.90
24103;DHT22;12278;53.058;9.028;2023-04-03T07:22:30;6.40;99.90
24103;DHT22;12278;53.058;9.028;2023-04-03T07:26:32;6.70;99.90
24103;DHT22;12278;53.058;9.028;2023-04-03T07:30:33;6.90;99.90
24103;DHT22;12278;53.058;9.028;2023-04-03T07:34:33;7.10;99.90
24103;DHT22;12278;53.058;9.028;2023-04-03T07:38:35;7.30;99.90
24103;DHT22;12278;53.058;9.028;2023-04-03T07:42:36;7.20;99.90
24103;DHT22;12278;53.058;9.028;2023-04-03T07:46:37;7.20;99.90
24103;DHT22;12278;53.058;9.028;2023-04-03T07:50:41;7.40;99.90
24103;DHT22;12278;53.058;9.028;2023-04-03T07:54:42;7.40;99.90
24103;DHT22;12278;53.058;9.028;2023-04-03T07:58:43;7.80;99.90
24103;DHT22;12278;53.058;9.028;2023-04-03T08:02:48;8.20;99.90
24103;DHT22;12278;53.058;9.028;2023-04-03T08:06:50;8.70;99.90
24103;DHT22;12278;53.058;9.028;2023-04-03T08:10:53;9.10;99.90
24103;DHT22;12278;53.058;9.028;2023-04-03T08:14:54;9.20;99.90
24103;DHT22;12278;53.058;9.028;2023-04-03T08:19:00;9.20;98.70
24103;DHT22;12278;53.058;9.028;2023-04-03T08:23:11;9.00;98.50
24103;DHT22;12278;53.058;9.028;2023-04-03T08:27:12;8.80;98.40
24103;DHT22;12278;53.058;9.028;2023-04-03T08:31:16;8.60;98.10
24103;DHT22;12278;53.058;9.028;2023-04-03T08:35:25;8.70;98.40
24103;DHT22;12278;53.058;9.028;2023-04-03T08:39:28;8.70;97.60
24103;DHT22;12278;53.058;9.028;2023-04-03T08:43:47;8.80;96.20
24103;DHT22;12278;53.058;9.028;2023-04-03T08:48:06;9.20;96.40
24103;DHT22;12278;53.058;9.028;2023-04-03T08:52:14;9.70;97.90
24103;DHT22;12278;53.058;9.028;2023-04-03T08:56:16;9.80;97.50
24103;DHT22;12278;53.058;9.028;2023-04-03T09:00:23;9.90;97.20
24103;DHT22;12278;53.058;9.028;2023-04-03T09:04:28;9.70;97.00
24103;DHT22;12278;53.058;9.028;2023-04-03T09:13:11;9.70;94.90
24103;DHT22;12278;53.058;9.028;2023-04-03T09:21:43;10.20;94.50
24103;DHT22;12278;53.058;9.028;2023-04-03T09:25:45;9.90;93.50
24103;DHT22;12278;53.058;9.028;2023-04-03T09:30:03;10.10;92.10
24103;DHT22;12278;53.058;9.028;2023-04-03T09:34:31;10.20;92.20
24103;DHT22;12278;53.058;9.028;2023-04-03T09:38:33;10.40;91.90
24103;DHT22;12278;53.058;9.028;2023-04-03T09:42:46;10.90;92.20
24103;DHT22;12278;53.058;9.028;2023-04-03T09:46:47;10.60;91.60
24103;DHT22;12278;53.058;9.028;2023-04-03T09:55:05;10.90;92.90
24103;DHT22;12278;53.058;9.028;2023-04-03T09:59:13;11.40;92.90
24103;DHT22;12278;53.058;9.028;2023-04-03T10:03:31;11.60;91.10
24103;DHT22;12278;53.058;9.028;2023-04-03T10:07:35;11.60;91.90
24103;DHT22;12278;53.058;9.028;2023-04-03T10:16:06;11.50;89.90
24103;DHT22;12278;53.058;9.028;2023-04-03T10:20:33;12.00;90.30
24103;DHT22;12278;53.058;9.028;2023-04-03T10:29:13;12.00;90.90
24103;DHT22;12278;53.058;9.028;2023-04-03T10:33:36;11.70;90.40
24103;DHT22;12278;53.058;9.028;2023-04-03T10:38:03;12.20;91.60
24103;DHT22;12278;53.058;9.028;2023-04-03T10:42:18;12.50;90.40
24103;DHT22;12278;53.058;9.028;2023-04-03T10:46:52;12.00;90.30
24103;DHT22;12278;53.058;9.028;2023-04-03T10:59:27;10.90;89.20
24103;DHT22;12278;53.058;9.028;2023-04-03T11:03:34;11.40;90.80
24103;DHT22;12278;53.058;9.028;2023-04-03T11:07:42;12.00;91.10
24103;DHT22;12278;53.058;9.028;2023-04-03T11:11:44;11.20;87.70
24103;DHT22;12278;53.058;9.028;2023-04-03T11:15:45;10.70;88.30
24103;DHT22;12278;53.058;9.028;2023-04-03T11:19:59;11.30;91.90
24103;DHT22;12278;53.058;9.028;2023-04-03T11:24:05;12.40;88.80
24103;DHT22;12278;53.058;9.028;2023-04-03T11:28:13;12.80;89.80
24103;DHT22;12278;53.058;9.028;2023-04-03T11:36:56;14.10;86.00
24103;DHT22;12278;53.058;9.028;2023-04-03T11:41:08;13.20;87.70
24103;DHT22;12278;53.058;9.028;2023-04-03T11:45:31;11.80;88.10
24103;DHT22;12278;53.058;9.028;2023-04-03T11:50:00;12.60;91.40
24103;DHT22;12278;53.058;9.028;2023-04-03T11:58:40;14.00;87.40
24103;DHT22;12278;53.058;9.028;2023-04-03T12:03:00;13.90;86.80
24103;DHT22;12278;53.058;9.028;2023-04-03T12:07:12;13.90;84.20
24103;DHT22;12278;53.058;9.028;2023-04-03T12:11:24;13.90;81.30
24103;DHT22;12278;53.058;9.028;2023-04-03T12:15:47;14.50;85.50
24103;DHT22;12278;53.058;9.028;2023-04-03T12:19:49;14.90;85.10
24103;DHT22;12278;53.058;9.028;2023-04-03T12:28:05;14.90;82.50
24103;DHT22;12278;53.058;9.028;2023-04-03T12:45:19;12.90;86.10
24103;DHT22;12278;53.058;9.028;2023-04-03T12:53:35;13.00;84.30
24103;DHT22;12278;53.058;9.028;2023-04-03T12:57:36;13.00;89.90
24103;DHT22;12278;53.058;9.028;2023-04-03T13:01:38;14.10;84.00
24103;DHT22;12278;53.058;9.028;2023-04-03T13:05:39;14.80;82.30
24103;DHT22;12278;53.058;9.028;2023-04-03T13:09:39;14.50;80.70
24103;DHT22;12278;53.058;9.028;2023-04-03T13:13:54;12.80;85.20
24103;DHT22;12278;53.058;9.028;2023-04-03T13:17:57;13.30;85.50
24103;DHT22;12278;53.058;9.028;2023-04-03T13:22:01;14.90;81.90
24103;DHT22;12278;53.058;9.028;2023-04-03T13:26:04;15.10;81.00
24103;DHT22;12278;53.058;9.028;2023-04-03T13:34:26;16.60;75.50
24103;DHT22;12278;53.058;9.028;2023-04-03T13:38:30;17.00;73.90
24103;DHT22;12278;53.058;9.028;2023-04-03T13:42:37;18.00;71.60
24103;DHT22;12278;53.058;9.028;2023-04-03T13:46:38;18.40;66.90
24103;DHT22;12278;53.058;9.028;2023-04-03T13:55:25;18.40;64.40
24103;DHT22;12278;53.058;9.028;2023-04-03T13:59:34;19.60;60.80
24103;DHT22;12278;53.058;9.028;2023-04-03T14:03:45;20.10;59.70
24103;DHT22;12278;53.058;9.028;2023-04-03T14:07:46;21.00;55.80
24103;DHT22;12278;53.058;9.028;2023-04-03T14:11:52;20.90;54.70
24103;DHT22;12278;53.058;9.028;2023-04-03T14:15:53;21.40;51.60
24103;DHT22;12278;53.058;9.028;2023-04-03T14:19:55;21.30;48.50
24103;DHT22;12278;53.058;9.028;2023-04-03T14:23:56;20.10;51.70
24103;DHT22;12278;53.058;9.028;2023-04-03T14:27:57;17.30;52.90
24103;DHT22;12278;53.058;9.028;2023-04-03T14:31:58;14.60;59.90
24103;DHT22;12278;53.058;9.028;2023-04-03T14:35:58;12.50;64.80
24103;DHT22;12278;53.058;9.028;2023-04-03T14:40:00;11.40;70.40
24103;DHT22;12278;53.058;9.028;2023-04-03T14:44:01;13.20;71.70
24103;DHT22;12278;53.058;9.028;2023-04-03T14:48:02;17.40;61.40
24103;DHT22;12278;53.058;9.028;2023-04-03T14:52:03;18.70;55.00
24103;DHT22;12278;53.058;9.028;2023-04-03T14:56:17;20.20;51.30
24103;DHT22;12278;53.058;9.028;2023-04-03T15:00:21;16.70;53.30
24103;DHT22;12278;53.058;9.028;2023-04-03T15:04:22;12.90;60.50
24103;DHT22;12278;53.058;9.028;2023-04-03T15:08:27;11.40;69.50
24103;DHT22;12278;53.058;9.028;2023-04-03T15:12:31;14.20;64.90
24103;DHT22;12278;53.058;9.028;2023-04-03T15:16:32;16.80;58.20
24103;DHT22;12278;53.058;9.028;2023-04-03T15:20:32;18.90;55.10
24103;DHT22;12278;53.058;9.028;2023-04-03T15:24:33;19.80;51.70
24103;DHT22;12278;53.058;9.028;2023-04-03T15:28:39;20.20;50.40
24103;DHT22;12278;53.058;9.028;2023-04-03T15:32:46;18.30;49.80
24103;DHT22;12278;53.058;9.028;2023-04-03T15:36:47;14.60;54.80
24103;DHT22;12278;53.058;9.028;2023-04-03T15:40:48;12.60;61.40
24103;DHT22;12278;53.058;9.028;2023-04-03T15:44:48;14.10;60.30
24103;DHT22;12278;53.058;9.028;2023-04-03T15:48:49;16.60;56.70
24103;DHT22;12278;53.058;9.028;2023-04-03T15:52:51;18.60;54.80
24103;DHT22;12278;53.058;9.028;2023-04-03T15:56:54;18.70;50.70
24103;DHT22;12278;53.058;9.028;2023-04-03T16:00:55;17.50;51.40
24103;DHT22;12278;53.058;9.028;2023-04-03T16:04:56;16.40;53.10
24103;DHT22;12278;53.058;9.028;2023-04-03T16:08:57;15.70;56.80
24103;DHT22;12278;53.058;9.028;2023-04-03T16:12:58;14.90;57.70
24103;DHT22;12278;53.058;9.028;2023-04-03T16:16:59;15.90;56.50
24103;DHT22;12278;53.058;9.028;2023-04-03T16:21:00;16.30;55.50
24103;DHT22;12278;53.058;9.028;2023-04-03T16:25:01;15.20;55.80
24103;DHT22;12278;53.058;9.028;2023-04-03T16:29:02;12.80;62.00
24103;DHT22;12278;53.058;9.028;2023-04-03T16:33:02;11.20;66.90
24103;DHT22;12278;53.058;9.028;2023-04-03T16:37:03;10.30;71.20
24103;DHT22;12278;53.058;9.028;2023-04-03T16:41:04;9.90;78.30
24103;DHT22;12278;53.058;9.028;2023-04-03T16:45:06;9.60;81.80
24103;DHT22;12278;53.058;9.028;2023-04-03T16:49:07;9.50;83.90
24103;DHT22;12278;53.058;9.028;2023-04-03T16:53:07;9.20;84.60
24103;DHT22;12278;53.058;9.028;2023-04-03T16:57:09;9.10;83.80
24103;DHT22;12278;53.058;9.028;2023-04-03T17:01:13;9.10;83.90
24103;DHT22;12278;53.058;9.028;2023-04-03T17:05:14;9.00;86.10
24103;DHT22;12278;53.058;9.028;2023-04-03T17:09:17;9.00;87.30
24103;DHT22;12278;53.058;9.028;2023-04-03T17:13:18;8.80;87.70
24103;DHT22;12278;53.058;9.028;2023-04-03T17:17:22;8.80;88.70
24103;DHT22;12278;53.058;9.028;2023-04-03T17:21:23;8.60;89.10
24103;DHT22;12278;53.058;9.028;2023-04-03T17:25:24;8.50;90.00
24103;DHT22;12278;53.058;9.028;2023-04-03T17:29:25;8.40;90.00
24103;DHT22;12278;53.058;9.028;2023-04-03T17:33:26;8.20;90.90
24103;DHT22;12278;53.058;9.028;2023-04-03T17:37:27;8.10;91.60
24103;DHT22;12278;53.058;9.028;2023-04-03T17:41:28;8.00;92.10
24103;DHT22;12278;53.058;9.028;2023-04-03T17:45:29;8.00;93.10
24103;DHT22;12278;53.058;9.028;2023-04-03T17:49:29;7.90;93.80
24103;DHT22;12278;53.058;9.028;2023-04-03T17:53:30;7.80;94.50
24103;DHT22;12278;53.058;9.028;2023-04-03T17:57:32;7.70;94.50
24103;DHT22;12278;53.058;9.028;2023-04-03T18:01:34;7.50;95.70
24103;DHT22;12278;53.058;9.028;2023-04-03T18:05:36;7.40;95.80
24103;DHT22;12278;53.058;9.028;2023-04-03T18:09:38;7.20;96.40
24103;DHT22;12278;53.058;9.028;2023-04-03T18:13:40;7.10;97.10
24103;DHT22;12278;53.058;9.028;2023-04-03T18:17:41;6.90;97.20
24103;DHT22;12278;53.058;9.028;2023-04-03T18:21:42;6.90;97.30
24103;DHT22;12278;53.058;9.028;2023-04-03T18:25:45;6.90;96.80
24103;DHT22;12278;53.058;9.028;2023-04-03T18:29:49;6.80;97.00
24103;DHT22;12278;53.058;9.028;2023-04-03T18:33:50;6.70;97.10
24103;DHT22;12278;53.058;9.028;2023-04-03T18:37:54;6.60;97.20
24103;DHT22;12278;53.058;9.028;2023-04-03T18:41:56;6.50;98.30
24103;DHT22;12278;53.058;9.028;2023-04-03T18:45:59;6.30;98.20
24103;DHT22;12278;53.058;9.028;2023-04-03T18:49:59;6.20;99.20
24103;DHT22;12278;53.058;9.028;2023-04-03T18:54:00;6.00;99.90
24103;DHT22;12278;53.058;9.028;2023-04-03T18:58:01;5.90;99.70
24103;DHT22;12278;53.058;9.028;2023-04-03T19:02:05;5.80;99.90
24103;DHT22;12278;53.058;9.028;2023-04-03T19:06:07;5.80;99.90
24103;DHT22;12278;53.058;9.028;2023-04-03T19:10:26;5.70;99.90
24103;DHT22;12278;53.058;9.028;2023-04-03T19:14:27;5.60;99.90
24103;DHT22;12278;53.058;9.028;2023-04-03T19:18:28;5.70;99.90
24103;DHT22;12278;53.058;9.028;2023-04-03T19:22:28;5.70;99.90
24103;DHT22;12278;53.058;9.028;2023-04-03T19:26:30;5.60;99.90
24103;DHT22;12278;53.058;9.028;2023-04-03T19:30:30;5.50;99.90
24103;DHT22;12278;53.058;9.028;2023-04-03T19:34:31;5.50;99.90
24103;DHT22;12278;53.058;9.028;2023-04-03T19:38:31;5.50;99.90
24103;DHT22;12278;53.058;9.028;2023-04-03T19:42:32;5.50;99.90
24103;DHT22;12278;53.058;9.028;2023-04-03T19:46:33;5.50;99.90
24103;DHT22;12278;53.058;9.028;2023-04-03T19:50:34;5.40;99.90
24103;DHT22;12278;53.058;9.028;2023-04-03T19:59:01;5.20;99.90
24103;DHT22;12278;53.058;9.028;2023-04-03T20:03:02;5.10;99.90
24103;DHT22;12278;53.058;9.028;2023-04-03T20:07:16;5.00;99.90
24103;DHT22;12278;53.058;9.028;2023-04-03T20:11:17;5.00;99.90
24103;DHT22;12278;53.058;9.028;2023-04-03T20:15:17;4.90;99.90
24103;DHT22;12278;53.058;9.028;2023-04-03T20:19:18;4.80;99.90
24103;DHT22;12278;53.058;9.028;2023-04-03T20:23:20;4.70;99.90
24103;DHT22;12278;53.058;9.028;2023-04-03T20:27:24;4.60;99.90
24103;DHT22;12278;53.058;9.028;2023-04-03T20:31:26;4.50;99.90
24103;DHT22;12278;53.058;9.028;2023-04-03T20:35:30;4.40;99.90
24103;DHT22;12278;53.058;9.028;2023-04-03T20:39:31;4.40;99.90
24103;DHT22;12278;53.058;9.028;2023-04-03T20:43:32;4.20;99.90
24103;DHT22;12278;53.058;9.028;2023-04-03T20:47:32;4.20;99.90
24103;DHT22;12278;53.058;9.028;2023-04-03T20:51:33;4.00;99.90
24103;DHT22;12278;53.058;9.028;2023-04-03T20:55:33;4.00;99.90
24103;DHT22;12278;53.058;9.028;2023-04-03T20:59:34;3.80;99.90
24103;DHT22;12278;53.058;9.028;2023-04-03T21:03:36;3.60;99.90
24103;DHT22;12278;53.058;9.028;2023-04-03T21:20:18;3.50;99.90
24103;DHT22;12278;53.058;9.028;2023-04-03T21:24:18;3.50;99.90
24103;DHT22;12278;53.058;9.028;2023-04-03T21:28:19;3.40;99.90
24103;DHT22;12278;53.058;9.028;2023-04-03T21:32:21;3.30;99.90
24103;DHT22;12278;53.058;9.028;2023-04-03T21:36:21;3.10;99.90
24103;DHT22;12278;53.058;9.028;2023-04-03T21:40:22;3.10;99.90
24103;DHT22;12278;53.058;9.028;2023-04-03T21:44:22;3.00;99.90
24103;DHT22;12278;53.058;9.028;2023-04-03T21:48:23;3.00;99.90
24103;DHT22;12278;53.058;9.028;2023-04-03T21:52:24;3.00;99.90
24103;DHT22;12278;53.058;9.028;2023-04-03T21:56:25;2.90;99.90
24103;DHT22;12278;53.058;9.028;2023-04-03T22:00:25;2.80;99.90
24103;DHT22;12278;53.058;9.028;2023-04-03T22:04:26;2.70;99.90
24103;DHT22;12278;53.058;9.028;2023-04-03T22:08:27;2.70;99.90
24103;DHT22;12278;53.058;9.028;2023-04-03T22:12:27;2.60;99.90
24103;DHT22;12278;53.058;9.028;2023-04-03T22:16:28;2.50;99.90
24103;DHT22;12278;53.058;9.028;2023-04-03T22:20:29;2.40;99.90
24103;DHT22;12278;53.058;9.028;2023-04-03T22:24:30;2.30;99.90
24103;DHT22;12278;53.058;9.028;2023-04-03T22:28:32;2.20;99.90
24103;DHT22;12278;53.058;9.028;2023-04-03T22:32:32;2.10;99.90
24103;DHT22;12278;53.058;9.028;2023-04-03T22:36:33;2.10;99.90
24103;DHT22;12278;53.058;9.028;2023-04-03T22:40:33;1.90;99.90
24103;DHT22;12278;53.058;9.028;2023-04-03T22:44:36;1.60;99.90
24103;DHT22;12278;53.058;9.028;2023-04-03T22:48:39;1.70;99.90
24103;DHT22;12278;53.058;9.028;2023-04-03T22:52:40;1.70;99.90
24103;DHT22;12278;53.058;9.028;2023-04-03T22:56:40;1.80;99.90
24103;DHT22;12278;53.058;9.028;2023-04-03T23:00:41;1.70;99.90
24103;DHT22;12278;53.058;9.028;2023-04-03T23:04:42;1.70;99.90
24103;DHT22;12278;53.058;9.028;2023-04-03T23:08:42;1.60;99.90
24103;DHT22;12278;53.058;9.028;2023-04-03T23:12:43;1.30;99.90
24103;DHT22;12278;53.058;9.028;2023-04-03T23:16:43;1.10;99.90
24103;DHT22;12278;53.058;9.028;2023-04-03T23:20:51;1.30;99.90
24103;DHT22;12278;53.058;9.028;2023-04-03T23:24:53;1.30;99.90
24103;DHT22;12278;53.058;9.028;2023-04-03T23:28:54;1.30;99.90
24103;DHT22;12278;53.058;9.028;2023-04-03T23:32:54;1.30;99.90
24103;DHT22;12278;53.058;9.028;2023-04-03T23:37:11;1.30;99.90
24103;DHT22;12278;53.058;9.028;2023-04-03T23:41:11;1.40;99.90
24103;DHT22;12278;53.058;9.028;2023-04-03T23:45:12;1.30;99.90
24103;DHT22;12278;53.058;9.028;2023-04-03T23:49:12;1.30;99.90
24103;DHT22;12278;53.058;9.028;2023-04-03T23:53:13;1.30;99.90
24103;DHT22;12278;53.058;9.028;2023-04-03T23:57:13;1.20;99.90
